Time;durP1;ratioP1;P1;durP2;ratioP2;P2;SDS_P1;SDS_P2;PMS_P1;PMS_P2;Temp;Humidity;BMP_temperature;BMP_pressure;BME280_temperature;BME280_humidity;BME280_pressure;Samples;Min_cycle;Max_cycle;Signal;HPM_P1;HPM_P2
2022/11/06 00:00:17;;;;;;;11.38;7.53;;;9.80;99.90;;;;;;4984550;28;20054;-82
2022/11/06 00:02:43;;;;;;;10.30;7.20;;;9.70;99.90;;;;;;4986219;28;20038;-81
2022/11/06 00:07:53;;;;;;;11.25;6.80;;;9.70;99.90;;;;;;4988025;28;20050;-82
2022/11/06 00:10:19;;;;;;;9.70;7.10;;;9.70;99.90;;;;;;4987928;28;20041;-82
2022/11/06 00:12:45;;;;;;;11.27;6.60;;;9.70;99.90;;;;;;4986638;28;20038;-82
2022/11/06 00:15:11;;;;;;;9.30;6.60;;;9.70;99.90;;;;;;4983291;28;20115;-82
2022/11/06 00:17:37;;;;;;;13.77;7.20;;;9.70;99.90;;;;;;4977470;28;20056;-82
2022/11/06 00:20:04;;;;;;;10.93;7.32;;;9.60;99.90;;;;;;4985081;28;20129;-82
2022/11/06 00:22:34;;;;;;;10.10;6.53;;;9.70;99.90;;;;;;4988448;28;20080;-82
2022/11/06 00:25:02;;;;;;;10.05;6.88;;;9.70;99.90;;;;;;4987579;28;20085;-80
2022/11/06 00:27:27;;;;;;;9.15;6.18;;;9.70;99.90;;;;;;4971116;28;20137;-79
2022/11/06 00:29:53;;;;;;;14.40;7.00;;;9.70;99.90;;;;;;4984845;28;20552;-80
2022/11/06 00:32:19;;;;;;;13.32;7.45;;;9.70;99.90;;;;;;4987183;28;20064;-79
2022/11/06 00:34:45;;;;;;;9.77;6.57;;;9.70;99.90;;;;;;4986225;28;20053;-79
2022/11/06 00:37:11;;;;;;;12.10;6.93;;;9.70;99.90;;;;;;4988021;28;20042;-82
2022/11/06 00:39:36;;;;;;;9.90;7.40;;;9.70;99.90;;;;;;4987976;28;20105;-82
2022/11/06 00:42:02;;;;;;;11.60;6.95;;;9.70;99.90;;;;;;4984803;28;20051;-82
2022/11/06 00:44:28;;;;;;;9.32;6.90;;;9.70;99.90;;;;;;4988342;28;20561;-81
2022/11/06 00:46:53;;;;;;;10.63;7.13;;;9.60;99.90;;;;;;4986874;28;20108;-80
2022/11/06 00:49:19;;;;;;;8.43;6.35;;;9.60;99.90;;;;;;4987609;28;20133;-81
2022/11/06 00:51:45;;;;;;;8.32;6.30;;;9.60;99.90;;;;;;4986091;28;20056;-81
2022/11/06 00:54:12;;;;;;;8.30;6.80;;;9.60;99.90;;;;;;4986817;28;20431;-81
2022/11/06 00:56:38;;;;;;;9.88;6.85;;;9.60;99.90;;;;;;4986208;28;20106;-81
2022/11/06 00:59:07;;;;;;;11.88;6.78;;;9.50;99.90;;;;;;4987024;28;20445;-81
2022/11/06 01:01:36;;;;;;;10.13;6.85;;;9.50;99.90;;;;;;4987672;28;20042;-81
2022/11/06 01:04:04;;;;;;;11.30;7.50;;;9.50;99.90;;;;;;4986550;28;20049;-81
2022/11/06 01:06:33;;;;;;;9.85;6.65;;;9.50;99.90;;;;;;4987509;28;20112;-81
2022/11/06 01:08:59;;;;;;;12.20;6.95;;;9.50;99.90;;;;;;4987055;28;20080;-81
2022/11/06 01:11:34;;;;;;;9.10;6.90;;;9.50;99.90;;;;;;4986676;28;20073;-81
2022/11/06 01:14:02;;;;;;;8.80;6.38;;;9.60;99.90;;;;;;4987346;28;20153;-81
2022/11/06 01:16:29;;;;;;;11.05;7.25;;;9.50;99.90;;;;;;4988216;28;20046;-81
2022/11/06 01:18:55;;;;;;;12.35;7.53;;;9.60;99.90;;;;;;4968821;28;20131;-81
2022/11/06 01:21:33;;;;;;;10.20;7.07;;;9.60;99.90;;;;;;4988108;28;20505;-80
2022/11/06 01:24:02;;;;;;;10.80;6.30;;;9.60;99.90;;;;;;4987630;28;20072;-82
2022/11/06 01:26:28;;;;;;;10.77;7.38;;;9.50;99.90;;;;;;4987153;28;20500;-81
2022/11/06 01:28:54;;;;;;;12.07;7.60;;;9.50;99.90;;;;;;4988993;28;20184;-81
2022/11/06 01:31:22;;;;;;;8.23;6.63;;;9.50;99.90;;;;;;4986305;28;20050;-81
2022/11/06 01:33:48;;;;;;;12.27;7.32;;;9.40;99.90;;;;;;4987819;28;20492;-81
2022/11/06 01:36:16;;;;;;;12.88;7.00;;;9.40;99.90;;;;;;4986827;28;20053;-81
2022/11/06 01:38:43;;;;;;;13.98;7.55;;;9.50;99.90;;;;;;4973767;28;20397;-81
2022/11/06 01:41:16;;;;;;;14.35;7.32;;;9.30;99.90;;;;;;4986519;28;20047;-82
2022/11/06 01:44:03;;;;;;;10.23;7.43;;;9.30;99.90;;;;;;4963193;28;20497;-82
2022/11/06 01:46:32;;;;;;;10.90;8.15;;;9.30;99.90;;;;;;4969324;28;20511;-81
2022/11/06 01:49:00;;;;;;;10.55;7.90;;;9.20;99.90;;;;;;4986571;28;20492;-81
2022/11/06 01:51:28;;;;;;;10.52;7.88;;;9.20;99.90;;;;;;4985707;28;20054;-81
2022/11/06 01:53:55;;;;;;;13.27;7.60;;;9.20;99.90;;;;;;4984096;28;20749;-82
2022/11/06 01:56:22;;;;;;;12.82;7.70;;;9.20;99.90;;;;;;4986069;28;20054;-81
2022/11/06 01:58:50;;;;;;;11.68;7.82;;;9.20;99.90;;;;;;4987503;28;20069;-81
2022/11/06 02:01:16;;;;;;;12.73;7.95;;;9.20;99.90;;;;;;4985486;28;20090;-81
2022/11/06 02:03:49;;;;;;;9.02;7.60;;;9.20;99.90;;;;;;4988537;28;20038;-81
2022/11/06 02:06:15;;;;;;;11.85;7.82;;;9.20;99.90;;;;;;4988776;28;20504;-81
2022/11/06 02:08:42;;;;;;;11.00;7.63;;;9.20;99.90;;;;;;4989017;28;20042;-81
2022/11/06 02:11:07;;;;;;;15.73;8.52;;;9.10;99.90;;;;;;4989204;28;20089;-82
2022/11/06 02:13:47;;;;;;;12.63;7.35;;;9.20;99.90;;;;;;4963571;28;20124;-82
2022/11/06 02:16:38;;;;;;;14.15;7.63;;;9.10;99.90;;;;;;4989161;28;20038;-82
2022/11/06 02:19:28;;;;;;;10.82;7.50;;;9.10;99.90;;;;;;4990271;28;20063;-82
2022/11/06 02:21:54;;;;;;;12.30;7.60;;;9.10;99.90;;;;;;4988780;28;20137;-82
2022/11/06 02:24:47;;;;;;;12.15;8.50;;;9.10;99.90;;;;;;4989748;28;20125;-81
2022/11/06 02:27:16;;;;;;;13.60;7.93;;;9.10;99.90;;;;;;4987005;28;20050;-82
2022/11/06 02:29:52;;;;;;;10.32;7.55;;;9.00;99.90;;;;;;4989510;28;20054;-82
2022/11/06 02:32:31;;;;;;;12.95;8.00;;;9.00;99.90;;;;;;4988699;28;20712;-82
2022/11/06 02:34:59;;;;;;;14.43;8.35;;;9.00;99.90;;;;;;4990106;28;20050;-81
2022/11/06 02:37:31;;;;;;;12.25;7.70;;;9.00;99.90;;;;;;4970763;28;20130;-82
2022/11/06 02:40:00;;;;;;;10.48;8.02;;;9.00;99.90;;;;;;4988004;28;20050;-81
2022/11/06 02:42:27;;;;;;;10.93;7.57;;;9.00;99.90;;;;;;4987513;28;20103;-82
2022/11/06 02:44:55;;;;;;;11.30;7.88;;;9.00;99.90;;;;;;4989708;28;20046;-82
2022/11/06 02:47:23;;;;;;;12.55;8.07;;;9.00;99.90;;;;;;4988861;28;20057;-81
2022/11/06 02:49:52;;;;;;;15.90;8.20;;;9.00;99.90;;;;;;4988818;28;20096;-82
2022/11/06 02:52:20;;;;;;;11.88;7.78;;;9.00;99.90;;;;;;4989695;28;20054;-82
2022/11/06 02:54:55;;;;;;;12.20;7.47;;;9.00;99.90;;;;;;4988452;28;20132;-82
2022/11/06 02:57:25;;;;;;;10.40;7.30;;;9.00;99.90;;;;;;4957932;28;20046;-82
2022/11/06 03:00:12;;;;;;;9.55;6.93;;;9.00;99.90;;;;;;4988884;28;20126;-82
2022/11/06 03:02:46;;;;;;;11.63;7.22;;;9.00;99.90;;;;;;4989530;28;20050;-82
2022/11/06 03:05:18;;;;;;;10.15;7.38;;;9.00;99.90;;;;;;4989310;28;20417;-81
2022/11/06 03:07:51;;;;;;;12.57;7.05;;;9.00;99.90;;;;;;4988992;28;20524;-82
2022/11/06 03:10:17;;;;;;;14.55;7.32;;;9.00;99.90;;;;;;4987075;28;20047;-82
2022/11/06 03:12:55;;;;;;;11.90;6.70;;;9.00;99.90;;;;;;4982702;28;20054;-82
2022/11/06 03:15:30;;;;;;;9.20;6.75;;;9.10;99.90;;;;;;4972590;28;20100;-82
2022/11/06 03:18:19;;;;;;;12.50;7.30;;;9.10;99.90;;;;;;4989527;28;20063;-82
2022/11/06 03:20:57;;;;;;;10.90;6.85;;;9.10;99.90;;;;;;4972102;28;20054;-82
2022/11/06 03:24:11;;;;;;;12.85;7.07;;;9.00;99.90;;;;;;4987775;28;20128;-81
2022/11/06 03:26:42;;;;;;;10.80;6.22;;;9.00;99.90;;;;;;4978887;28;20139;-81
2022/11/06 03:29:14;;;;;;;13.88;6.93;;;9.00;99.90;;;;;;4986930;28;20089;-81
2022/11/06 03:31:49;;;;;;;11.27;6.60;;;9.00;99.90;;;;;;4989235;28;20085;-82
2022/11/06 03:34:23;;;;;;;8.98;6.68;;;9.00;99.90;;;;;;4988541;28;20174;-82
2022/11/06 03:36:58;;;;;;;12.23;6.78;;;9.00;99.90;;;;;;4988131;28;20108;-82
2022/11/06 03:39:33;;;;;;;11.40;6.78;;;9.00;99.90;;;;;;4985465;28;20058;-82
2022/11/06 03:42:07;;;;;;;8.55;6.15;;;9.00;99.90;;;;;;4987750;28;20051;-82
2022/11/06 03:44:38;;;;;;;12.35;6.45;;;9.00;99.90;;;;;;4972336;28;20050;-82
2022/11/06 03:47:28;;;;;;;12.93;6.65;;;9.00;99.90;;;;;;4987817;28;20062;-82
2022/11/06 03:50:07;;;;;;;9.85;5.93;;;9.00;99.90;;;;;;4978284;28;20078;-82
2022/11/06 03:52:37;;;;;;;9.82;6.40;;;9.00;99.90;;;;;;4987829;28;20482;-82
2022/11/06 03:55:16;;;;;;;9.55;5.88;;;9.00;99.90;;;;;;4981576;28;20062;-82
2022/11/06 03:57:53;;;;;;;9.32;6.70;;;9.00;99.90;;;;;;4973655;28;20053;-81
2022/11/06 04:00:21;;;;;;;10.52;6.40;;;9.00;99.90;;;;;;4987330;28;20042;-81
2022/11/06 04:03:03;;;;;;;9.93;5.97;;;8.90;99.90;;;;;;4988133;28;20117;-82
2022/11/06 04:05:36;;;;;;;8.77;6.20;;;9.00;99.90;;;;;;4987248;28;20046;-81
2022/11/06 04:13:56;;;;;;;10.73;6.15;;;9.00;99.90;;;;;;4984484;28;20062;-81
2022/11/06 04:16:32;;;;;;;11.23;5.80;;;8.90;99.90;;;;;;4987367;28;20077;-81
2022/11/06 04:18:58;;;;;;;11.65;5.88;;;9.00;99.90;;;;;;4987830;28;20046;-82
2022/11/06 04:21:46;;;;;;;11.77;6.07;;;9.00;99.90;;;;;;4988588;28;20396;-81
2022/11/06 04:27:26;;;;;;;11.20;6.25;;;8.90;99.90;;;;;;4984733;28;20459;-83
2022/11/06 04:30:06;;;;;;;9.82;6.07;;;9.00;99.90;;;;;;4987023;28;20042;-82
2022/11/06 04:33:01;;;;;;;9.88;6.53;;;8.90;99.90;;;;;;4985883;28;20062;-82
2022/11/06 04:35:57;;;;;;;9.80;5.60;;;8.90;99.90;;;;;;4970873;28;20112;-82
2022/11/06 04:38:38;;;;;;;7.05;5.90;;;8.90;99.90;;;;;;4986015;28;20069;-83
2022/11/06 04:41:33;;;;;;;9.98;5.95;;;8.90;99.90;;;;;;4984597;28;20483;-82
2022/11/06 04:44:18;;;;;;;8.73;5.75;;;9.00;99.90;;;;;;4986410;28;20493;-82
2022/11/06 04:46:55;;;;;;;11.82;6.25;;;9.00;99.90;;;;;;4967935;28;20456;-82
2022/11/06 04:49:22;;;;;;;13.73;6.35;;;9.00;99.90;;;;;;4970293;28;20050;-82
2022/11/06 04:51:48;;;;;;;10.63;5.88;;;8.90;99.90;;;;;;4986601;28;20485;-82
2022/11/06 04:54:14;;;;;;;10.38;5.60;;;9.00;99.90;;;;;;4986442;28;20412;-83
2022/11/06 04:56:43;;;;;;;10.32;5.88;;;8.90;99.90;;;;;;4976386;28;20042;-82
2022/11/06 04:59:13;;;;;;;10.52;5.13;;;9.10;99.90;;;;;;4981743;28;20046;-82
2022/11/06 05:01:43;;;;;;;9.18;5.47;;;8.90;99.90;;;;;;4986558;28;20038;-82
2022/11/06 05:04:10;;;;;;;12.32;5.28;;;9.00;99.90;;;;;;4986197;28;20038;-82
2022/11/06 05:06:38;;;;;;;13.93;5.72;;;9.00;99.90;;;;;;4985921;28;20050;-82
2022/11/06 05:09:04;;;;;;;9.07;5.28;;;9.00;99.90;;;;;;4986474;28;20468;-82
2022/11/06 05:11:32;;;;;;;9.63;5.43;;;9.00;99.90;;;;;;4980312;28;20057;-82
2022/11/06 05:14:00;;;;;;;7.97;5.43;;;9.00;99.90;;;;;;4976971;28;20053;-82
2022/11/06 05:16:26;;;;;;;8.55;5.72;;;9.00;99.90;;;;;;4985903;28;20065;-82
2022/11/06 05:18:51;;;;;;;10.38;5.43;;;9.00;99.90;;;;;;4970157;28;20046;-82
2022/11/06 05:24:01;;;;;;;7.80;5.35;;;9.00;99.90;;;;;;4986603;28;20054;-82
2022/11/06 05:26:27;;;;;;;10.68;5.15;;;9.00;99.90;;;;;;4985219;28;20046;-82
2022/11/06 05:28:53;;;;;;;7.80;5.00;;;9.00;99.90;;;;;;4985643;28;20062;-82
2022/11/06 05:31:18;;;;;;;7.43;4.60;;;9.00;99.90;;;;;;4986381;28;20058;-82
2022/11/06 05:33:44;;;;;;;9.15;4.70;;;9.00;99.90;;;;;;4987642;28;20054;-82
2022/11/06 05:36:09;;;;;;;7.45;4.88;;;9.00;99.90;;;;;;4984992;28;20489;-82
2022/11/06 05:38:35;;;;;;;10.52;5.03;;;9.00;99.90;;;;;;4986589;28;20058;-82
2022/11/06 05:41:00;;;;;;;11.98;4.63;;;9.00;99.90;;;;;;4989044;28;20505;-82
2022/11/06 05:43:26;;;;;;;8.30;4.43;;;9.10;99.90;;;;;;4991241;28;20046;-82
2022/11/06 05:45:52;;;;;;;7.63;4.50;;;9.10;99.90;;;;;;4989608;28;20057;-82
2022/11/06 05:48:17;;;;;;;7.50;4.50;;;9.10;99.90;;;;;;4991086;28;20049;-82
2022/11/06 05:50:43;;;;;;;7.28;4.10;;;9.10;99.90;;;;;;4990913;28;20057;-82
2022/11/06 05:53:08;;;;;;;12.57;4.75;;;9.10;99.90;;;;;;4989861;28;20461;-82
2022/11/06 05:55:34;;;;;;;9.90;4.07;;;9.10;99.90;;;;;;4989199;28;20042;-82
2022/11/06 05:58:00;;;;;;;8.93;3.53;;;9.20;99.90;;;;;;4991263;28;20086;-82
2022/11/06 06:00:25;;;;;;;8.60;3.47;;;9.20;99.90;;;;;;4991094;28;20042;-82
2022/11/06 06:02:51;;;;;;;7.40;3.45;;;9.20;99.90;;;;;;4991544;28;20058;-82
2022/11/06 06:05:17;;;;;;;11.15;4.43;;;9.20;99.90;;;;;;4990957;28;20512;-82
2022/11/06 06:07:42;;;;;;;7.85;3.78;;;9.20;99.90;;;;;;4979703;28;20134;-82
2022/11/06 06:10:09;;;;;;;9.38;3.85;;;9.20;99.90;;;;;;4989328;28;20097;-82
2022/11/06 06:12:34;;;;;;;10.73;4.03;;;9.30;99.90;;;;;;4988946;28;20492;-82
2022/11/06 06:15:00;;;;;;;7.78;3.75;;;9.60;99.90;;;;;;4991182;28;20046;-82
2022/11/06 06:17:26;;;;;;;5.75;3.75;;;9.30;99.90;;;;;;4988585;28;20058;-82
2022/11/06 06:19:52;;;;;;;8.13;4.05;;;9.30;99.90;;;;;;4989565;28;20893;-82
2022/11/06 06:22:17;;;;;;;8.63;4.32;;;9.30;99.90;;;;;;4974486;28;20046;-82
2022/11/06 06:24:43;;;;;;;8.38;3.70;;;9.30;99.90;;;;;;4986555;28;20034;-82
2022/11/06 06:27:09;;;;;;;8.13;3.92;;;9.30;99.90;;;;;;4984504;28;20058;-82
2022/11/06 06:29:34;;;;;;;6.80;3.65;;;9.40;99.90;;;;;;4984656;28;21541;-82
2022/11/06 06:32:00;;;;;;;8.45;3.60;;;9.40;99.90;;;;;;4987462;28;20086;-81
2022/11/06 06:34:25;;;;;;;8.57;3.72;;;9.40;99.90;;;;;;4977095;28;20050;-83
2022/11/06 06:36:52;;;;;;;6.65;3.78;;;9.40;99.90;;;;;;4980834;28;20054;-82
2022/11/06 06:39:18;;;;;;;8.05;3.28;;;9.50;99.90;;;;;;4985597;28;20453;-82
2022/11/06 06:41:45;;;;;;;8.23;3.50;;;9.50;99.90;;;;;;4992708;28;20456;-82
2022/11/06 06:44:11;;;;;;;7.80;3.75;;;9.50;99.90;;;;;;4979293;28;20058;-82
2022/11/06 06:46:37;;;;;;;11.20;4.13;;;9.50;99.90;;;;;;4989231;28;20057;-84
2022/11/06 06:49:03;;;;;;;6.22;3.60;;;9.50;99.90;;;;;;5007410;28;20053;-83
2022/11/06 06:51:28;;;;;;;9.45;4.00;;;9.50;99.90;;;;;;4994050;28;20392;-83
2022/11/06 06:53:54;;;;;;;6.90;3.53;;;9.50;99.90;;;;;;4998591;28;20055;-83
2022/11/06 06:56:20;;;;;;;7.70;3.28;;;9.50;99.90;;;;;;4985276;28;20054;-84
2022/11/06 06:58:46;;;;;;;7.45;3.38;;;9.50;99.90;;;;;;4994132;28;20422;-83
2022/11/06 07:01:12;;;;;;;4.65;3.13;;;9.60;99.90;;;;;;4981917;28;20060;-84
2022/11/06 07:03:38;;;;;;;12.27;3.60;;;9.60;99.90;;;;;;4990229;28;20133;-81
2022/11/06 07:06:05;;;;;;;10.10;4.05;;;9.60;99.90;;;;;;4983998;28;20042;-85
2022/11/06 07:08:31;;;;;;;6.93;3.83;;;9.70;99.90;;;;;;4982680;28;20054;-82
2022/11/06 07:11:05;;;;;;;7.95;3.33;;;9.70;99.90;;;;;;4987500;28;20046;-82
2022/11/06 07:13:30;;;;;;;7.80;3.30;;;9.70;99.90;;;;;;4988602;28;20121;-82
2022/11/06 07:15:56;;;;;;;11.65;3.42;;;9.70;99.90;;;;;;4984768;28;20184;-82
2022/11/06 07:18:22;;;;;;;7.88;3.33;;;9.70;99.90;;;;;;4988848;28;20061;-82
2022/11/06 07:20:47;;;;;;;5.95;3.15;;;9.80;99.90;;;;;;4987515;28;20116;-81
2022/11/06 07:23:13;;;;;;;8.52;3.10;;;9.80;99.90;;;;;;4985684;28;20712;-82
2022/11/06 07:25:38;;;;;;;8.65;3.70;;;9.80;99.90;;;;;;4985953;28;20077;-82
2022/11/06 07:28:06;;;;;;;9.02;3.25;;;9.80;99.90;;;;;;4989169;28;20042;-82
2022/11/06 07:30:33;;;;;;;8.52;3.28;;;9.90;99.90;;;;;;4983640;28;20046;-81
2022/11/06 07:33:00;;;;;;;8.48;3.15;;;9.90;99.90;;;;;;4987481;28;20051;-82
2022/11/06 07:35:26;;;;;;;6.20;2.83;;;9.90;99.90;;;;;;4963706;28;20035;-82
2022/11/06 07:37:52;;;;;;;5.70;2.72;;;9.90;99.90;;;;;;4987697;28;20412;-82
2022/11/06 07:40:18;;;;;;;5.65;2.95;;;10.00;99.90;;;;;;4986074;28;20069;-82
2022/11/06 07:42:43;;;;;;;6.05;3.05;;;10.00;99.90;;;;;;4985864;28;20559;-82
2022/11/06 07:45:09;;;;;;;7.53;3.05;;;10.10;99.90;;;;;;4986988;28;20096;-81
2022/11/06 07:47:35;;;;;;;8.80;2.60;;;10.10;99.90;;;;;;4987715;28;20050;-81
2022/11/06 07:50:01;;;;;;;7.38;2.97;;;10.10;99.90;;;;;;4979008;28;20065;-82
2022/11/06 07:52:26;;;;;;;8.40;2.67;;;10.20;99.90;;;;;;4988514;28;20119;-82
2022/11/06 07:54:52;;;;;;;8.68;3.53;;;10.20;99.90;;;;;;4984908;28;20085;-82
2022/11/06 07:57:18;;;;;;;7.30;2.75;;;10.20;99.90;;;;;;4980898;28;20042;-83
2022/11/06 07:59:43;;;;;;;4.65;2.55;;;10.20;99.90;;;;;;4984515;28;20065;-82
2022/11/06 08:02:11;;;;;;;5.70;2.55;;;10.20;99.90;;;;;;4988145;28;20054;-82
2022/11/06 08:04:37;;;;;;;6.53;2.75;;;10.20;99.90;;;;;;4985769;28;20046;-82
2022/11/06 08:07:03;;;;;;;7.88;3.28;;;10.20;99.90;;;;;;4987023;28;20409;-82
2022/11/06 08:09:37;;;;;;;6.90;2.63;;;10.20;99.90;;;;;;4985434;28;20102;-81
2022/11/06 08:12:03;;;;;;;9.90;2.83;;;10.20;99.90;;;;;;4985271;28;20045;-82
2022/11/06 08:14:28;;;;;;;6.30;2.60;;;10.20;99.90;;;;;;4987973;28;20457;-83
2022/11/06 08:16:55;;;;;;;5.68;3.13;;;10.20;99.90;;;;;;4969108;28;20042;-82
2022/11/06 08:19:21;;;;;;;5.55;2.47;;;10.20;99.90;;;;;;4985131;28;20054;-82
2022/11/06 08:21:46;;;;;;;7.20;2.20;;;10.20;99.90;;;;;;4980130;28;20050;-82
2022/11/06 08:24:12;;;;;;;6.78;2.47;;;10.00;99.90;;;;;;4986267;28;20089;-83
2022/11/06 08:26:37;;;;;;;6.05;2.30;;;10.20;99.90;;;;;;4988315;28;20050;-83
2022/11/06 08:29:03;;;;;;;5.18;2.55;;;10.20;99.90;;;;;;4987336;28;20050;-82
2022/11/06 08:31:28;;;;;;;6.32;3.00;;;10.10;99.90;;;;;;4974601;28;20045;-83
2022/11/06 08:33:54;;;;;;;8.07;2.83;;;10.40;99.90;;;;;;4988225;28;20050;-84
2022/11/06 08:36:19;;;;;;;8.27;2.88;;;10.20;99.90;;;;;;4987679;28;20116;-83
2022/11/06 08:38:48;;;;;;;6.63;2.72;;;10.10;99.90;;;;;;4986449;28;20366;-84
2022/11/06 08:41:14;;;;;;;6.03;2.70;;;10.30;99.90;;;;;;4987847;28;20093;-83
2022/11/06 08:43:40;;;;;;;12.70;3.10;;;10.30;99.90;;;;;;4985478;28;20146;-83
2022/11/06 08:46:07;;;;;;;8.15;2.85;;;10.10;99.90;;;;;;4988781;28;20823;-84
2022/11/06 08:48:33;;;;;;;6.75;2.80;;;10.00;99.90;;;;;;4986976;28;21273;-82
2022/11/06 08:50:58;;;;;;;4.57;2.58;;;10.20;99.90;;;;;;4984202;28;20105;-83
2022/11/06 08:53:24;;;;;;;4.40;2.63;;;10.20;99.90;;;;;;4986660;28;20485;-82
2022/11/06 08:55:50;;;;;;;12.45;3.03;;;10.10;99.90;;;;;;4988185;28;20124;-80
2022/11/06 08:58:15;;;;;;;7.90;2.95;;;10.30;99.90;;;;;;4985776;28;20850;-82
2022/11/06 09:00:41;;;;;;;8.57;2.72;;;10.40;99.90;;;;;;4987378;28;20694;-81
2022/11/06 09:03:13;;;;;;;6.13;2.83;;;10.30;99.90;;;;;;4983670;28;21510;-81
2022/11/06 09:05:40;;;;;;;9.18;2.67;;;10.50;99.90;;;;;;4985722;28;20055;-82
2022/11/06 09:08:07;;;;;;;6.55;2.50;;;10.50;99.90;;;;;;4986297;28;20133;-82
2022/11/06 09:10:33;;;;;;;5.78;2.75;;;;;;;;;;4984328;28;20408;-82
2022/11/06 09:12:59;;;;;;;4.28;2.55;;;;;;;;;;4984259;28;20050;-82
2022/11/06 09:15:25;;;;;;;8.07;2.38;;;;;;;;;;4987774;28;20061;-81
2022/11/06 09:17:51;;;;;;;5.40;2.40;;;;;;;;;;4985858;28;20579;-82
2022/11/06 09:20:18;;;;;;;4.78;2.42;;;;;;;;;;4966093;28;20753;-83
2022/11/06 09:22:45;;;;;;;8.88;3.15;;;11.30;99.90;;;;;;4969439;28;20053;-84
2022/11/06 09:25:10;;;;;;;5.93;2.58;;;11.40;99.90;;;;;;4974425;28;20156;-83
2022/11/06 09:27:46;;;;;;;6.07;2.25;;;11.60;99.90;;;;;;4967831;28;20142;-83
2022/11/06 09:30:14;;;;;;;6.68;2.55;;;11.60;99.90;;;;;;4967650;28;20177;-81
2022/11/06 09:33:02;;;;;;;5.78;2.38;;;11.60;99.90;;;;;;4981559;28;20046;-81
2022/11/06 09:35:30;;;;;;;5.63;2.35;;;11.60;99.90;;;;;;4987252;28;20386;-84
2022/11/06 09:38:01;;;;;;;4.78;2.20;;;11.50;99.90;;;;;;4986569;28;20126;-83
2022/11/06 09:40:36;;;;;;;9.07;2.42;;;11.90;99.90;;;;;;4970617;28;20125;-82
2022/11/06 09:43:32;;;;;;;5.05;2.30;;;11.50;99.90;;;;;;4985873;28;20882;-83
2022/11/06 09:46:17;;;;;;;5.32;2.28;;;11.40;99.90;;;;;;4970029;28;20166;-81
2022/11/06 09:48:48;;;;;;;5.10;2.25;;;11.40;99.90;;;;;;4986699;28;20050;-78
2022/11/06 09:51:17;;;;;;;7.43;2.58;;;11.50;99.90;;;;;;4985836;28;20054;-78
2022/11/06 09:53:51;;;;;;;5.65;2.30;;;11.50;99.90;;;;;;4988415;28;20113;-81
2022/11/06 09:56:24;;;;;;;5.88;2.38;;;11.50;99.90;;;;;;4987851;28;20544;-82
2022/11/06 09:58:53;;;;;;;2.97;2.13;;;11.50;99.90;;;;;;4981786;28;20443;-81
2022/11/06 10:01:42;;;;;;;6.22;3.00;;;11.60;99.90;;;;;;4987077;28;20058;-81
2022/11/06 10:04:15;;;;;;;4.97;1.92;;;;;;;;;;4986611;28;20544;-82
2022/11/06 10:06:40;;;;;;;5.68;1.90;;;11.90;99.90;;;;;;4986499;28;20394;-81
2022/11/06 10:09:06;;;;;;;7.43;2.38;;;11.90;99.90;;;;;;4986399;28;20042;-80
2022/11/06 10:11:35;;;;;;;3.10;1.80;;;11.90;99.90;;;;;;4969843;28;20085;-80
2022/11/06 10:14:09;;;;;;;5.85;2.05;;;11.90;99.90;;;;;;4985281;28;20050;-80
2022/11/06 10:16:51;;;;;;;6.80;2.20;;;11.90;99.90;;;;;;4970344;28;20056;-80
2022/11/06 10:19:32;;;;;;;4.50;2.30;;;12.00;99.90;;;;;;4987882;28;20054;-80
2022/11/06 10:22:07;;;;;;;3.13;2.10;;;12.00;99.90;;;;;;4986499;28;20058;-80
2022/11/06 10:24:57;;;;;;;5.00;1.83;;;12.00;99.90;;;;;;4985924;28;20054;-80
2022/11/06 10:27:44;;;;;;;4.88;1.98;;;12.10;99.90;;;;;;4981517;28;20042;-81
2022/11/06 10:30:16;;;;;;;4.95;1.65;;;12.00;99.90;;;;;;4985566;28;20369;-81
2022/11/06 10:33:16;;;;;;;4.90;1.80;;;12.50;99.90;;;;;;4973150;28;20081;-80
2022/11/06 10:35:53;;;;;;;3.33;2.03;;;11.90;99.90;;;;;;4989139;28;20050;-82
2022/11/06 10:38:32;;;;;;;4.80;2.20;;;12.10;99.90;;;;;;4989060;28;20173;-80
2022/11/06 10:40:59;;;;;;;3.92;2.50;;;11.90;99.90;;;;;;4969434;28;20505;-81
2022/11/06 10:43:25;;;;;;;4.13;2.63;;;12.30;99.90;;;;;;4976017;28;20142;-81
2022/11/06 10:45:59;;;;;;;6.10;2.13;;;11.90;99.90;;;;;;4988623;28;20050;-80
2022/11/06 10:48:29;;;;;;;6.30;2.20;;;11.80;99.90;;;;;;4995278;28;20050;-77
2022/11/06 10:51:06;;;;;;;5.75;2.65;;;11.80;99.90;;;;;;4971417;28;20072;-78
2022/11/06 10:53:53;;;;;;;5.45;2.88;;;10.90;99.90;;;;;;4990337;28;20129;-78
2022/11/06 10:56:31;;;;;;;5.57;2.38;;;11.60;99.90;;;;;;4982561;28;20046;-79
2022/11/06 10:58:57;;;;;;;4.28;2.10;;;11.70;99.90;;;;;;4972725;28;20053;-78
2022/11/06 11:01:23;;;;;;;3.85;2.28;;;11.60;99.90;;;;;;4986450;28;20046;-78
2022/11/06 11:03:50;;;;;;;7.75;2.72;;;11.70;99.90;;;;;;4972613;28;20519;-79
2022/11/06 11:06:16;;;;;;;10.32;2.67;;;11.90;99.90;;;;;;4989062;28;20511;-79
2022/11/06 11:08:47;;;;;;;7.75;2.15;;;12.00;99.90;;;;;;4989493;28;20050;-79
2022/11/06 11:11:13;;;;;;;5.85;2.40;;;12.10;99.90;;;;;;4977605;28;20054;-79
2022/11/06 11:13:43;;;;;;;7.47;2.15;;;12.20;99.90;;;;;;4989273;28;20393;-77
2022/11/06 11:16:27;;;;;;;6.80;2.42;;;12.30;99.90;;;;;;4988588;28;20098;-79
2022/11/06 11:18:53;;;;;;;7.13;2.40;;;12.40;99.90;;;;;;4983997;28;20054;-79
2022/11/06 11:21:24;;;;;;;7.20;2.10;;;12.40;99.90;;;;;;4969709;28;20515;-79
2022/11/06 11:23:59;;;;;;;5.70;2.08;;;12.40;99.90;;;;;;4984841;28;20132;-80
2022/11/06 11:26:27;;;;;;;5.90;2.00;;;12.40;99.90;;;;;;4979907;28;20042;-79
2022/11/06 11:28:55;;;;;;;5.40;1.90;;;12.50;99.90;;;;;;4987010;28;20050;-80
2022/11/06 11:31:32;;;;;;;4.10;2.00;;;12.40;99.90;;;;;;4987453;28;20090;-80
2022/11/06 11:34:01;;;;;;;4.28;2.72;;;12.40;99.90;;;;;;4981044;28;20038;-80
2022/11/06 11:36:57;;;;;;;4.57;2.65;;;12.40;99.90;;;;;;4961183;28;20038;-80
2022/11/06 11:39:35;;;;;;;5.03;2.30;;;12.50;99.90;;;;;;4988696;28;20058;-80
2022/11/06 11:42:26;;;;;;;5.38;2.67;;;12.50;99.90;;;;;;4983488;28;20054;-81
2022/11/06 11:45:12;;;;;;;3.80;2.00;;;12.60;99.90;;;;;;4954565;28;20575;-80
2022/11/06 11:48:11;;;;;;;4.20;1.95;;;12.60;99.90;;;;;;4982347;28;20490;-81
2022/11/06 11:50:36;;;;;;;3.47;1.70;;;12.60;99.90;;;;;;4988578;28;20578;-81
2022/11/06 11:53:12;;;;;;;3.65;1.70;;;12.60;99.90;;;;;;4989572;28;20130;-81
2022/11/06 11:55:45;;;;;;;6.55;1.83;;;12.70;99.90;;;;;;4982398;28;20196;-81
2022/11/06 11:58:23;;;;;;;5.15;2.00;;;12.70;99.90;;;;;;4984184;28;20094;-82
2022/11/06 12:01:02;;;;;;;3.47;1.42;;;12.70;99.90;;;;;;4987771;28;20476;-81
2022/11/06 12:03:37;;;;;;;6.13;1.80;;;12.70;99.90;;;;;;4970830;28;20046;-80
2022/11/06 12:06:07;;;;;;;4.93;1.40;;;12.80;99.90;;;;;;4959646;28;20054;-80
2022/11/06 12:08:35;;;;;;;7.63;1.73;;;12.80;99.90;;;;;;4968242;28;20185;-79
2022/11/06 12:11:03;;;;;;;4.75;2.00;;;12.90;99.90;;;;;;4968074;28;20062;-79
2022/11/06 12:13:29;;;;;;;4.40;1.55;;;12.90;99.90;;;;;;4967993;28;20262;-80
2022/11/06 12:16:01;;;;;;;4.15;1.42;;;12.90;99.90;;;;;;4968161;28;20531;-81
2022/11/06 12:18:33;;;;;;;3.80;1.63;;;12.90;99.90;;;;;;4969211;28;20117;-79
2022/11/06 12:21:06;;;;;;;4.45;1.98;;;12.90;99.90;;;;;;4976479;28;20122;-82
2022/11/06 12:23:39;;;;;;;2.75;1.60;;;12.90;99.90;;;;;;4986342;28;20050;-81
2022/11/06 12:26:31;;;;;;;3.63;1.90;;;12.90;99.90;;;;;;4979388;28;20518;-80
2022/11/06 12:29:13;;;;;;;4.47;2.08;;;13.00;99.90;;;;;;4987896;28;20085;-81
2022/11/06 12:31:58;;;;;;;9.73;2.25;;;13.00;99.90;;;;;;4987035;28;20572;-80
2022/11/06 12:34:37;;;;;;;5.00;1.90;;;13.10;99.90;;;;;;4970630;28;20110;-81
2022/11/06 12:37:16;;;;;;;3.47;2.08;;;13.10;99.90;;;;;;4969241;28;20572;-80
2022/11/06 12:39:51;;;;;;;5.95;1.95;;;13.00;99.90;;;;;;4986622;28;20108;-81
2022/11/06 12:42:26;;;;;;;3.08;1.60;;;13.00;99.90;;;;;;4970844;28;20213;-82
2022/11/06 12:44:52;;;;;;;4.53;1.85;;;12.90;99.90;;;;;;4987230;28;20390;-82
2022/11/06 12:47:20;;;;;;;4.72;2.08;;;12.80;99.90;;;;;;4987899;28;20057;-81
2022/11/06 12:50:23;;;;;;;8.20;2.00;;;12.90;99.90;;;;;;4988273;28;20050;-81
2022/11/06 12:53:14;;;;;;;4.07;1.92;;;12.80;99.90;;;;;;4975556;28;20238;-82
2022/11/06 12:55:50;;;;;;;5.40;1.60;;;12.70;99.90;;;;;;4966814;28;20046;-82
2022/11/06 12:58:39;;;;;;;6.45;2.00;;;12.70;99.90;;;;;;4984409;28;20473;-81
2022/11/06 13:01:20;;;;;;;3.55;1.70;;;12.70;99.90;;;;;;4986693;28;20053;-82
2022/11/06 13:04:10;;;;;;;4.20;2.03;;;12.60;99.90;;;;;;4987069;28;20050;-82
2022/11/06 13:07:14;;;;;;;7.38;1.75;;;12.60;99.90;;;;;;4986657;28;20148;-80
2022/11/06 13:10:20;;;;;;;3.45;1.48;;;12.80;99.90;;;;;;4967454;28;20086;-82
2022/11/06 13:13:14;;;;;;;4.22;1.73;;;12.50;99.90;;;;;;4983286;28;20503;-82
2022/11/06 13:15:55;;;;;;;5.95;1.70;;;12.40;99.90;;;;;;4968770;28;20394;-82
2022/11/06 13:18:38;;;;;;;4.93;1.70;;;12.40;99.90;;;;;;4986739;28;20086;-82
2022/11/06 13:21:09;;;;;;;3.30;1.55;;;12.40;99.90;;;;;;4987910;28;20154;-82
2022/11/06 13:23:41;;;;;;;4.43;1.60;;;12.40;99.90;;;;;;4971017;28;20097;-81
2022/11/06 13:26:12;;;;;;;3.75;1.55;;;12.40;99.90;;;;;;4981918;28;20051;-82